createdAt,value
2019-02-17T00:00:35.382Z,7.00
2019-02-17T00:03:36.667Z,7.00
2019-02-17T00:06:38.238Z,7.00
2019-02-17T00:09:39.199Z,6.70
2019-02-17T00:12:40.743Z,6.80
2019-02-17T00:15:42.398Z,6.70
2019-02-17T00:18:44.182Z,6.70
2019-02-17T00:21:45.195Z,6.60
2019-02-17T00:24:46.267Z,6.60
2019-02-17T00:27:47.655Z,6.70
2019-02-17T00:30:49.575Z,6.70
2019-02-17T00:33:49.599Z,6.70
2019-02-17T00:36:58.367Z,6.60
2019-02-17T00:39:59.802Z,6.60
2019-02-17T00:43:01.062Z,6.60
2019-02-17T00:46:02.446Z,6.40
2019-02-17T00:49:03.575Z,6.40
2019-02-17T00:52:05.568Z,6.30
2019-02-17T00:55:07.014Z,6.30
2019-02-17T00:58:08.819Z,6.20
2019-02-17T01:01:10.234Z,6.10
2019-02-17T01:04:12.030Z,6.10
2019-02-17T01:07:13.234Z,6.10
2019-02-17T01:10:14.863Z,6.10
2019-02-17T01:13:16.031Z,6.30
2019-02-17T01:16:17.706Z,6.20
2019-02-17T01:19:19.343Z,6.20
2019-02-17T01:22:09.043Z,6.20
2019-02-17T01:25:17.756Z,6.20
2019-02-17T01:28:19.418Z,6.20
2019-02-17T01:31:21.131Z,6.20
2019-02-17T01:34:22.943Z,6.20
2019-02-17T01:37:24.832Z,6.20
2019-02-17T01:40:26.498Z,6.20
2019-02-17T01:43:27.691Z,6.10
2019-02-17T01:46:28.683Z,6.10
2019-02-17T01:49:30.156Z,6.30
2019-02-17T01:52:32.183Z,6.40
2019-02-17T01:55:33.118Z,6.30
2019-02-17T01:58:34.542Z,6.40
2019-02-17T02:01:35.994Z,6.50
2019-02-17T02:04:37.732Z,6.50
2019-02-17T02:07:38.836Z,6.50
2019-02-17T02:10:39.940Z,6.50
2019-02-17T02:13:41.435Z,6.50
2019-02-17T02:16:43.235Z,6.50
2019-02-17T02:19:44.279Z,6.30
2019-02-17T02:22:45.219Z,6.20
2019-02-17T02:25:46.054Z,6.10
2019-02-17T02:28:47.464Z,6.00
2019-02-17T02:31:49.293Z,5.90
2019-02-17T02:34:50.819Z,5.70
2019-02-17T02:37:51.761Z,5.70
2019-02-17T02:40:53.473Z,5.70
2019-02-17T02:43:54.427Z,5.70
2019-02-17T02:46:55.566Z,5.70
2019-02-17T02:49:56.638Z,5.50
2019-02-17T02:52:57.854Z,5.60
2019-02-17T02:55:59.025Z,5.50
2019-02-17T02:59:00.410Z,5.50
2019-02-17T03:02:02.054Z,5.50
2019-02-17T03:05:03.724Z,5.50
2019-02-17T03:08:03.599Z,5.40
2019-02-17T03:11:05.575Z,5.40
2019-02-17T03:14:07.622Z,5.50
2019-02-17T03:17:08.759Z,5.60
2019-02-17T03:20:09.843Z,5.50
2019-02-17T03:23:11.527Z,5.50
2019-02-17T03:26:12.505Z,5.50
2019-02-17T03:29:14.156Z,5.30
2019-02-17T03:32:15.382Z,5.20
2019-02-17T03:35:16.560Z,5.30
2019-02-17T03:38:17.547Z,5.40
2019-02-17T03:41:18.809Z,5.30
2019-02-17T03:44:20.790Z,5.40
2019-02-17T03:47:22.488Z,5.30
2019-02-17T03:50:23.850Z,5.20
2019-02-17T03:53:25.493Z,5.30
2019-02-17T03:56:26.588Z,5.30
2019-02-17T03:59:28.245Z,5.30
2019-02-17T04:02:29.327Z,5.20
2019-02-17T04:05:30.178Z,5.30
2019-02-17T04:08:30.167Z,5.10
2019-02-17T04:11:31.495Z,5.10
2019-02-17T04:14:33.231Z,5.10
2019-02-17T04:17:34.370Z,5.00
2019-02-17T04:20:34.722Z,4.90
2019-02-17T04:23:35.786Z,4.90
2019-02-17T04:26:37.109Z,4.80
2019-02-17T04:29:44.062Z,5.00
2019-02-17T04:32:45.023Z,5.00
2019-02-17T04:35:46.410Z,4.50
2019-02-17T04:38:47.794Z,4.30
2019-02-17T04:41:49.503Z,4.20
2019-02-17T04:44:50.431Z,4.20
2019-02-17T04:47:52.011Z,4.30
2019-02-17T04:50:51.835Z,4.50
2019-02-17T04:54:00.636Z,4.60
2019-02-17T04:57:01.591Z,4.60
2019-02-17T05:00:03.015Z,4.60
2019-02-17T05:03:03.996Z,4.70
2019-02-17T05:06:05.743Z,4.70
2019-02-17T05:12:28.986Z,4.60
2019-02-17T05:15:36.149Z,4.60
2019-02-17T05:18:38.025Z,4.60
2019-02-17T05:21:39.038Z,4.50
2019-02-17T05:24:40.171Z,4.50
2019-02-17T05:27:41.230Z,4.40
2019-02-17T05:30:52.298Z,4.40
2019-02-17T05:33:46.262Z,4.10
2019-02-17T05:36:47.371Z,4.20
2019-02-17T05:39:49.064Z,4.20
2019-02-17T05:42:50.643Z,4.20
2019-02-17T05:48:58.822Z,4.00
2019-02-17T05:52:00.202Z,4.10
2019-02-17T05:55:06.892Z,4.20
2019-02-17T05:58:08.059Z,4.20
2019-02-17T06:01:10.482Z,4.10
2019-02-17T06:04:11.874Z,4.00
2019-02-17T06:07:13.093Z,4.00
2019-02-17T06:10:14.523Z,3.90
2019-02-17T06:13:15.834Z,3.70
2019-02-17T06:19:24.679Z,4.00
2019-02-17T06:22:25.871Z,3.90
2019-02-17T06:25:27.020Z,3.90
2019-02-17T06:28:27.059Z,3.90
2019-02-17T06:34:56.182Z,3.90
2019-02-17T06:37:57.521Z,4.00
2019-02-17T06:40:59.135Z,3.90
2019-02-17T06:44:00.477Z,3.90
2019-02-17T06:50:12.098Z,4.00
2019-02-17T06:53:13.879Z,3.90
2019-02-17T06:59:48.577Z,3.90
2019-02-17T07:02:50.344Z,4.00
2019-02-17T07:06:11.216Z,4.00
2019-02-17T07:09:12.419Z,4.10
2019-02-17T07:12:13.455Z,4.30
2019-02-17T07:15:14.928Z,4.30
2019-02-17T07:18:22.140Z,4.40
2019-02-17T07:21:23.618Z,4.50
2019-02-17T07:24:25.047Z,4.60
2019-02-17T07:27:26.227Z,4.60
2019-02-17T07:30:27.170Z,4.80
2019-02-17T07:33:29.070Z,5.00
2019-02-17T07:36:29.159Z,5.10
2019-02-17T07:39:38.008Z,5.10
2019-02-17T07:42:39.023Z,5.10
2019-02-17T07:45:39.859Z,5.20
2019-02-17T07:48:47.454Z,5.40
2019-02-17T07:51:49.542Z,5.40
2019-02-17T07:54:51.186Z,5.50
2019-02-17T07:57:53.102Z,5.60
2019-02-17T08:00:54.282Z,5.90
2019-02-17T08:03:55.363Z,6.10
2019-02-17T08:06:57.260Z,6.30
2019-02-17T08:10:00.606Z,6.50
2019-02-17T08:13:00.843Z,6.80
2019-02-17T08:16:02.111Z,7.10
2019-02-17T08:19:09.363Z,7.40
2019-02-17T08:22:11.200Z,7.70
2019-02-17T08:25:21.466Z,8.10
2019-02-17T08:28:15.295Z,8.40
2019-02-17T08:31:16.411Z,8.70
2019-02-17T08:34:18.102Z,9.10
2019-02-17T08:37:19.579Z,9.50
2019-02-17T08:40:21.277Z,9.90
2019-02-17T08:43:22.265Z,10.20
2019-02-17T08:46:23.446Z,10.50
2019-02-17T08:52:32.363Z,11.10
2019-02-17T08:55:33.422Z,11.50
2019-02-17T08:58:34.543Z,11.90
2019-02-17T09:01:36.223Z,12.20
2019-02-17T09:04:38.089Z,12.60
2019-02-17T09:07:39.530Z,13.00
2019-02-17T09:10:41.239Z,13.30
2019-02-17T09:13:41.311Z,13.60
2019-02-17T09:16:50.185Z,14.00
2019-02-17T09:19:57.341Z,14.30
2019-02-17T09:22:58.962Z,14.50
2019-02-17T09:25:58.822Z,14.70
2019-02-17T09:29:00.006Z,15.00
2019-02-17T09:32:01.124Z,15.00
2019-02-17T09:35:02.574Z,14.90
2019-02-17T09:38:05.068Z,15.30
2019-02-17T09:41:05.903Z,15.40
2019-02-17T09:44:07.151Z,15.40
2019-02-17T09:47:08.820Z,15.60
2019-02-17T09:50:16.202Z,15.70
2019-02-17T09:53:18.173Z,15.70
2019-02-17T09:56:19.119Z,15.70
2019-02-17T09:59:20.949Z,15.80
2019-02-17T10:02:26.444Z,15.70
2019-02-17T10:05:25.443Z,16.10
2019-02-17T10:08:27.359Z,15.80
2019-02-17T10:11:29.126Z,15.70
2019-02-17T10:14:30.688Z,15.70
2019-02-17T10:17:31.907Z,15.80
2019-02-17T10:23:40.540Z,15.90
2019-02-17T10:26:41.679Z,15.90
2019-02-17T10:29:42.859Z,16.00
2019-02-17T10:32:44.762Z,16.30
2019-02-17T10:35:45.506Z,16.40
2019-02-17T10:38:46.993Z,16.20
2019-02-17T10:41:48.140Z,16.40
2019-02-17T10:44:48.219Z,16.80
2019-02-17T10:47:56.874Z,16.90
2019-02-17T10:51:03.860Z,17.00
2019-02-17T10:54:06.345Z,17.20
2019-02-17T10:57:07.630Z,17.30
2019-02-17T11:00:11.953Z,17.70
2019-02-17T11:03:13.069Z,17.60
2019-02-17T11:06:14.014Z,18.10
2019-02-17T11:09:20.271Z,18.70
2019-02-17T11:12:23.609Z,19.20
2019-02-17T11:15:25.469Z,18.90
2019-02-17T11:18:27.580Z,19.10
2019-02-17T11:24:36.539Z,20.50
2019-02-17T11:27:37.665Z,21.00
2019-02-17T11:30:39.394Z,20.70
2019-02-17T11:33:40.915Z,20.10
2019-02-17T11:36:42.244Z,20.00
2019-02-17T11:39:44.179Z,19.90
2019-02-17T11:42:46.131Z,20.10
2019-02-17T11:45:47.551Z,20.30
2019-02-17T11:48:48.730Z,21.10
2019-02-17T11:51:55.899Z,22.20
2019-02-17T11:54:58.229Z,23.60
2019-02-17T11:58:00.047Z,24.90
2019-02-17T12:01:02.035Z,25.10
2019-02-17T12:04:03.955Z,25.20
2019-02-17T12:07:05.497Z,25.40
2019-02-17T12:10:07.282Z,25.60
2019-02-17T12:13:08.800Z,25.90
2019-02-17T12:16:10.270Z,25.70
2019-02-17T12:19:12.282Z,25.20
2019-02-17T12:25:44.377Z,24.70
2019-02-17T12:28:50.278Z,24.70
2019-02-17T12:31:51.566Z,24.30
2019-02-17T12:34:53.344Z,23.80
2019-02-17T12:37:54.600Z,23.70
2019-02-17T12:40:54.730Z,23.60
2019-02-17T12:44:03.706Z,23.70
2019-02-17T12:47:05.545Z,23.80
2019-02-17T12:50:06.680Z,24.10
2019-02-17T12:53:13.755Z,24.40
2019-02-17T12:56:15.365Z,24.60
2019-02-17T12:59:16.995Z,24.40
2019-02-17T13:02:18.746Z,24.30
2019-02-17T13:05:20.195Z,24.40
2019-02-17T13:08:21.817Z,24.30
2019-02-17T13:11:23.460Z,24.50
2019-02-17T13:14:25.323Z,24.20
2019-02-17T13:17:26.337Z,23.90
2019-02-17T13:20:28.152Z,23.80
2019-02-17T13:26:36.714Z,23.10
2019-02-17T13:29:40.201Z,22.80
2019-02-17T13:32:42.143Z,22.60
2019-02-17T13:35:43.945Z,22.00
2019-02-17T13:38:45.619Z,21.50
2019-02-17T13:41:46.679Z,21.90
2019-02-17T13:44:48.006Z,21.90
2019-02-17T13:47:48.303Z,22.30
2019-02-17T13:50:49.270Z,22.70
2019-02-17T13:53:57.102Z,22.80
2019-02-17T13:56:58.958Z,23.10
2019-02-17T14:00:00.554Z,23.30
2019-02-17T14:03:04.475Z,23.70
2019-02-17T14:06:05.633Z,23.50
2019-02-17T14:09:07.274Z,23.50
2019-02-17T14:12:08.867Z,23.70
2019-02-17T14:15:10.122Z,24.10
2019-02-17T14:18:11.534Z,23.90
2019-02-17T14:21:13.499Z,23.90
2019-02-17T14:24:21.018Z,24.30
2019-02-17T14:27:23.076Z,24.40
2019-02-17T14:30:24.820Z,24.40
2019-02-17T14:33:26.455Z,24.70
2019-02-17T14:36:28.138Z,24.90
2019-02-17T14:39:30.140Z,24.80
2019-02-17T14:42:31.447Z,24.90
2019-02-17T14:45:31.541Z,24.80
2019-02-17T14:52:05.894Z,24.70
2019-02-17T14:58:35.558Z,24.80
2019-02-17T15:01:37.035Z,24.80
2019-02-17T15:04:38.119Z,24.80
2019-02-17T15:07:40.004Z,25.00
2019-02-17T15:10:41.878Z,24.80
2019-02-17T15:13:43.149Z,24.80
2019-02-17T15:16:44.435Z,24.70
2019-02-17T15:19:45.719Z,24.50
2019-02-17T15:22:46.788Z,24.40
2019-02-17T15:29:14.426Z,24.10
2019-02-17T15:32:16.278Z,24.10
2019-02-17T15:35:17.822Z,23.90
2019-02-17T15:38:19.660Z,23.80
2019-02-17T15:41:21.042Z,23.60
2019-02-17T15:44:21.632Z,23.30
2019-02-17T15:53:22.747Z,22.50
2019-02-17T16:02:58.459Z,21.90
2019-02-17T16:05:59.467Z,21.90
2019-02-17T16:09:00.861Z,21.70
2019-02-17T16:15:09.156Z,20.80
2019-02-17T16:18:10.579Z,20.50
2019-02-17T16:21:13.122Z,20.20
2019-02-17T16:24:14.530Z,19.90
2019-02-17T16:30:23.579Z,19.30
2019-02-17T16:33:24.693Z,19.00
2019-02-17T16:36:25.835Z,18.80
2019-02-17T16:39:27.178Z,18.50
2019-02-17T16:42:29.083Z,18.40
2019-02-17T16:45:30.623Z,18.10
2019-02-17T16:48:36.542Z,17.90
2019-02-17T16:51:44.246Z,17.80
2019-02-17T16:54:46.159Z,17.60
2019-02-17T17:00:55.234Z,17.30
2019-02-17T17:03:56.283Z,17.20
2019-02-17T17:06:57.534Z,17.00
2019-02-17T17:09:59.455Z,16.80
2019-02-17T17:13:01.129Z,16.70
2019-02-17T17:16:02.888Z,16.50
2019-02-17T17:19:04.350Z,16.40
2019-02-17T17:22:06.359Z,16.20
2019-02-17T17:25:07.788Z,16.10
2019-02-17T17:31:17.662Z,15.90
2019-02-17T17:34:19.299Z,15.70
2019-02-17T17:37:20.547Z,15.60
2019-02-17T17:40:21.498Z,15.50
2019-02-17T17:43:22.656Z,15.40
2019-02-17T17:46:23.826Z,15.20
2019-02-17T17:49:25.913Z,15.00
2019-02-17T17:52:27.870Z,14.80
2019-02-17T17:55:34.020Z,14.60
2019-02-17T18:01:42.382Z,14.40
2019-02-17T18:04:43.686Z,14.20
2019-02-17T18:07:44.599Z,14.10
2019-02-17T18:10:46.438Z,14.00
2019-02-17T18:13:47.538Z,13.90
2019-02-17T18:16:49.388Z,13.70
2019-02-17T18:19:51.251Z,13.50
2019-02-17T18:22:52.507Z,13.40
2019-02-17T18:25:53.565Z,13.20
2019-02-17T18:32:02.416Z,13.10
2019-02-17T18:35:04.146Z,13.10
2019-02-17T18:38:05.508Z,13.00
2019-02-17T18:41:06.702Z,13.00
2019-02-17T18:44:07.868Z,12.90
2019-02-17T18:47:09.250Z,12.90
2019-02-17T18:50:11.714Z,12.80
2019-02-17T18:53:15.305Z,12.70
2019-02-17T18:56:17.184Z,12.50
2019-02-17T19:02:25.679Z,12.30
2019-02-17T19:05:31.992Z,12.30
2019-02-17T19:08:29.782Z,12.30
2019-02-17T19:11:30.792Z,12.20
2019-02-17T19:14:32.523Z,12.10
2019-02-17T19:17:33.987Z,12.00
2019-02-17T19:20:35.360Z,11.90
2019-02-17T19:23:37.356Z,11.80
2019-02-17T19:26:38.745Z,11.70
2019-02-17T19:32:46.783Z,11.60
2019-02-17T19:35:48.608Z,11.70
2019-02-17T19:38:50.163Z,11.70
2019-02-17T19:41:50.545Z,11.70
2019-02-17T19:44:51.618Z,11.70
2019-02-17T19:47:53.420Z,11.70
2019-02-17T19:50:55.313Z,11.70
2019-02-17T19:53:56.871Z,11.40
2019-02-17T19:56:59.039Z,11.40
2019-02-17T20:06:34.316Z,11.30
2019-02-17T20:12:45.330Z,11.10
2019-02-17T20:15:46.822Z,11.00
2019-02-17T20:18:48.708Z,10.80
2019-02-17T20:21:49.858Z,10.70
2019-02-17T20:24:58.807Z,10.70
2019-02-17T20:28:00.881Z,10.70
2019-02-17T20:34:09.863Z,10.60
2019-02-17T20:37:11.010Z,10.60
2019-02-17T20:40:12.628Z,10.70
2019-02-17T20:43:14.109Z,10.70
2019-02-17T20:46:14.086Z,10.60
2019-02-17T20:52:48.303Z,10.60
2019-02-17T20:55:49.510Z,10.30
2019-02-17T20:58:51.114Z,10.40
2019-02-17T21:04:59.063Z,10.40
2019-02-17T21:07:59.571Z,10.20
2019-02-17T21:11:01.411Z,10.10
2019-02-17T21:14:03.334Z,10.10
2019-02-17T21:17:05.040Z,9.90
2019-02-17T21:20:06.415Z,9.70
2019-02-17T21:23:08.418Z,9.60
2019-02-17T21:26:09.511Z,9.50
2019-02-17T21:29:10.702Z,9.50
2019-02-17T21:35:19.493Z,9.40
2019-02-17T21:38:21.451Z,9.40
2019-02-17T21:41:22.282Z,9.40
2019-02-17T21:44:23.743Z,9.40
2019-02-17T21:47:25.569Z,9.30
2019-02-17T21:50:26.610Z,9.10
2019-02-17T21:53:27.868Z,9.10
2019-02-17T21:56:29.047Z,9.10
2019-02-17T21:59:32.499Z,9.10
2019-02-17T22:05:40.826Z,9.00
2019-02-17T22:08:41.891Z,8.80
2019-02-17T22:11:43.742Z,8.80
2019-02-17T22:14:45.254Z,8.80
2019-02-17T22:17:46.147Z,8.70
2019-02-17T22:20:48.025Z,8.70
2019-02-17T22:23:49.380Z,8.60
2019-02-17T22:26:50.504Z,8.50
2019-02-17T22:29:51.931Z,8.60
2019-02-17T22:35:59.840Z,8.30
2019-02-17T22:39:01.782Z,8.30
2019-02-17T22:42:03.187Z,8.20
2019-02-17T22:45:04.391Z,8.30
2019-02-17T22:48:05.699Z,8.20
2019-02-17T22:51:07.640Z,8.00
2019-02-17T22:54:09.314Z,8.00
2019-02-17T22:57:10.317Z,8.00
2019-02-17T23:00:11.463Z,7.90
2019-02-17T23:06:20.295Z,7.80
2019-02-17T23:09:22.294Z,7.80
2019-02-17T23:12:23.323Z,7.70
2019-02-17T23:15:24.900Z,7.60
2019-02-17T23:18:24.787Z,7.40
2019-02-17T23:21:26.679Z,7.40
2019-02-17T23:24:27.650Z,7.50
2019-02-17T23:27:28.764Z,7.60
2019-02-17T23:30:30.392Z,7.50
2019-02-17T23:36:38.651Z,7.20
2019-02-17T23:39:39.979Z,7.20
2019-02-17T23:42:41.600Z,7.30
2019-02-17T23:45:44.676Z,7.30
2019-02-17T23:48:46.126Z,6.80
2019-02-17T23:51:47.894Z,6.60
2019-02-17T23:54:48.859Z,6.70
2019-02-17T23:57:50.118Z,6.90
